sensor_id;sensor_type;location;lat;lon;timestamp;pressure;altitude;pressure_sealevel;temperature;humidity
42771;BME280;28426;42.872;25.314;2023-01-24T00:00:22;98207.81;;;0.31;91.33
42771;BME280;28426;42.872;25.314;2023-01-24T00:02:52;98222.06;;;0.27;91.49
42771;BME280;28426;42.872;25.314;2023-01-24T00:05:23;98222.25;;;0.24;92.49
42771;BME280;28426;42.872;25.314;2023-01-24T00:07:54;98201.81;;;0.15;92.69
42771;BME280;28426;42.872;25.314;2023-01-24T00:10:27;98211.94;;;0.21;92.46
42771;BME280;28426;42.872;25.314;2023-01-24T00:12:59;98212.88;;;0.20;92.28
42771;BME280;28426;42.872;25.314;2023-01-24T00:15:29;98207.72;;;0.18;92.75
42771;BME280;28426;42.872;25.314;2023-01-24T00:18:00;98215.69;;;0.17;92.49
42771;BME280;28426;42.872;25.314;2023-01-24T00:20:31;98206.38;;;0.11;91.29
42771;BME280;28426;42.872;25.314;2023-01-24T00:23:02;98212.09;;;0.03;89.59
42771;BME280;28426;42.872;25.314;2023-01-24T00:25:35;98218.06;;;-0.09;89.88
42771;BME280;28426;42.872;25.314;2023-01-24T00:28:05;98208.88;;;-0.17;91.09
42771;BME280;28426;42.872;25.314;2023-01-24T00:30:36;98215.97;;;-0.19;91.46
42771;BME280;28426;42.872;25.314;2023-01-24T00:33:07;98218.34;;;-0.14;92.99
42771;BME280;28426;42.872;25.314;2023-01-24T00:35:37;98224.72;;;-0.04;93.61
42771;BME280;28426;42.872;25.314;2023-01-24T00:38:08;98217.00;;;0.09;94.20
42771;BME280;28426;42.872;25.314;2023-01-24T00:40:41;98226.31;;;0.30;94.11
42771;BME280;28426;42.872;25.314;2023-01-24T00:43:12;98221.72;;;0.48;94.30
42771;BME280;28426;42.872;25.314;2023-01-24T00:45:44;98227.72;;;0.64;94.14
42771;BME280;28426;42.872;25.314;2023-01-24T00:48:15;98221.50;;;0.80;93.67
42771;BME280;28426;42.872;25.314;2023-01-24T00:50:46;98222.44;;;0.94;93.57
42771;BME280;28426;42.872;25.314;2023-01-24T00:53:17;98223.16;;;1.10;93.11
42771;BME280;28426;42.872;25.314;2023-01-24T00:55:50;98232.91;;;1.23;92.48
42771;BME280;28426;42.872;25.314;2023-01-24T00:58:22;98229.47;;;1.35;91.31
42771;BME280;28426;42.872;25.314;2023-01-24T01:00:55;98223.63;;;1.45;90.91
42771;BME280;28426;42.872;25.314;2023-01-24T01:03:28;98226.81;;;1.50;89.83
42771;BME280;28426;42.872;25.314;2023-01-24T01:06:00;98224.72;;;1.55;89.49
42771;BME280;28426;42.872;25.314;2023-01-24T01:08:31;98231.38;;;1.61;89.30
42771;BME280;28426;42.872;25.314;2023-01-24T01:11:05;98222.44;;;1.63;88.54
42771;BME280;28426;42.872;25.314;2023-01-24T01:13:36;98233.59;;;1.67;88.67
42771;BME280;28426;42.872;25.314;2023-01-24T01:16:08;98232.53;;;1.69;88.54
42771;BME280;28426;42.872;25.314;2023-01-24T01:18:40;98235.94;;;1.72;88.04
42771;BME280;28426;42.872;25.314;2023-01-24T01:21:12;98233.84;;;1.77;88.00
42771;BME280;28426;42.872;25.314;2023-01-24T01:23:43;98234.56;;;1.79;87.89
42771;BME280;28426;42.872;25.314;2023-01-24T01:26:18;98230.06;;;1.81;87.70
42771;BME280;28426;42.872;25.314;2023-01-24T01:28:49;98234.28;;;1.83;87.62
42771;BME280;28426;42.872;25.314;2023-01-24T01:31:20;98231.56;;;1.85;86.74
42771;BME280;28426;42.872;25.314;2023-01-24T01:33:51;98235.88;;;1.86;86.74
42771;BME280;28426;42.872;25.314;2023-01-24T01:36:21;98234.06;;;1.87;86.87
42771;BME280;28426;42.872;25.314;2023-01-24T01:38:52;98241.03;;;1.88;86.68
42771;BME280;28426;42.872;25.314;2023-01-24T01:41:26;98233.97;;;1.88;86.33
42771;BME280;28426;42.872;25.314;2023-01-24T01:43:57;98236.59;;;1.88;85.91
42771;BME280;28426;42.872;25.314;2023-01-24T01:46:42;98242.81;;;1.87;85.76
42771;BME280;28426;42.872;25.314;2023-01-24T01:49:18;98242.81;;;1.87;85.79
42771;BME280;28426;42.872;25.314;2023-01-24T01:51:53;98235.88;;;1.86;85.48
42771;BME280;28426;42.872;25.314;2023-01-24T01:54:29;98244.59;;;1.87;85.57
42771;BME280;28426;42.872;25.314;2023-01-24T01:57:05;98243.84;;;1.85;85.36
42771;BME280;28426;42.872;25.314;2023-01-24T01:59:39;98238.69;;;1.83;85.54
42771;BME280;28426;42.872;25.314;2023-01-24T02:02:12;98242.28;;;1.82;85.20
42771;BME280;28426;42.872;25.314;2023-01-24T02:04:45;98238.78;;;1.81;85.22
42771;BME280;28426;42.872;25.314;2023-01-24T02:07:20;98237.19;;;1.79;85.10
42771;BME280;28426;42.872;25.314;2023-01-24T02:09:54;98247.72;;;1.79;84.66
42771;BME280;28426;42.872;25.314;2023-01-24T02:12:30;98246.25;;;1.75;84.65
42771;BME280;28426;42.872;25.314;2023-01-24T02:15:04;98242.97;;;1.71;84.69
42771;BME280;28426;42.872;25.314;2023-01-24T02:17:48;98250.09;;;1.69;84.54
42771;BME280;28426;42.872;25.314;2023-01-24T02:20:26;98249.28;;;1.68;84.46
42771;BME280;28426;42.872;25.314;2023-01-24T02:23:08;98249.47;;;1.65;84.53
42771;BME280;28426;42.872;25.314;2023-01-24T02:25:44;98248.00;;;1.61;84.78
42771;BME280;28426;42.872;25.314;2023-01-24T02:28:19;98255.06;;;1.61;84.63
42771;BME280;28426;42.872;25.314;2023-01-24T02:30:51;98255.16;;;1.59;84.69
42771;BME280;28426;42.872;25.314;2023-01-24T02:33:22;98250.06;;;1.56;84.80
42771;BME280;28426;42.872;25.314;2023-01-24T02:36:15;98255.44;;;1.54;84.68
42771;BME280;28426;42.872;25.314;2023-01-24T02:38:50;98255.53;;;1.53;84.39
42771;BME280;28426;42.872;25.314;2023-01-24T02:41:26;98245.59;;;1.43;84.43
42771;BME280;28426;42.872;25.314;2023-01-24T02:44:05;98259.41;;;1.47;84.08
42771;BME280;28426;42.872;25.314;2023-01-24T02:46:39;98259.59;;;1.44;84.40
42771;BME280;28426;42.872;25.314;2023-01-24T02:49:13;98266.72;;;1.42;84.18
42771;BME280;28426;42.872;25.314;2023-01-24T02:51:43;98250.31;;;1.38;84.26
42771;BME280;28426;42.872;25.314;2023-01-24T02:54:26;98259.16;;;1.37;83.95
42771;BME280;28426;42.872;25.314;2023-01-24T02:56:57;98255.97;;;1.32;84.14
42771;BME280;28426;42.872;25.314;2023-01-24T02:59:43;98261.34;;;1.30;84.36
42771;BME280;28426;42.872;25.314;2023-01-24T03:02:14;98257.13;;;1.28;84.30
42771;BME280;28426;42.872;25.314;2023-01-24T03:04:45;98263.41;;;1.25;84.68
42771;BME280;28426;42.872;25.314;2023-01-24T03:07:15;98265.19;;;1.25;84.79
42771;BME280;28426;42.872;25.314;2023-01-24T03:09:52;98246.31;;;1.18;84.35
42771;BME280;28426;42.872;25.314;2023-01-24T03:12:24;98245.13;;;1.09;84.24
42771;BME280;28426;42.872;25.314;2023-01-24T03:15:10;98258.75;;;1.16;84.34
42771;BME280;28426;42.872;25.314;2023-01-24T03:17:57;98257.88;;;1.15;84.59
42771;BME280;28426;42.872;25.314;2023-01-24T03:20:40;98262.41;;;1.13;84.59
42771;BME280;28426;42.872;25.314;2023-01-24T03:23:23;98257.34;;;1.10;84.12
42771;BME280;28426;42.872;25.314;2023-01-24T03:26:07;98264.66;;;1.05;84.43
42771;BME280;28426;42.872;25.314;2023-01-24T03:28:50;98260.53;;;1.01;84.19
42771;BME280;28426;42.872;25.314;2023-01-24T03:31:37;98251.16;;;0.97;84.56
42771;BME280;28426;42.872;25.314;2023-01-24T03:34:23;98264.47;;;0.94;84.55
42771;BME280;28426;42.872;25.314;2023-01-24T03:37:00;98255.00;;;0.91;84.57
42771;BME280;28426;42.872;25.314;2023-01-24T03:39:31;98259.22;;;0.94;84.99
42771;BME280;28426;42.872;25.314;2023-01-24T03:42:15;98252.19;;;0.94;84.87
42771;BME280;28426;42.872;25.314;2023-01-24T03:44:47;98251.34;;;0.94;84.62
42771;BME280;28426;42.872;25.314;2023-01-24T03:47:20;98253.22;;;0.91;84.35
42771;BME280;28426;42.872;25.314;2023-01-24T03:49:52;98251.72;;;0.87;84.45
42771;BME280;28426;42.872;25.314;2023-01-24T03:52:35;98253.59;;;0.85;84.55
42771;BME280;28426;42.872;25.314;2023-01-24T03:55:07;98257.16;;;0.84;84.77
42771;BME280;28426;42.872;25.314;2023-01-24T03:57:38;98255.47;;;0.83;84.49
42771;BME280;28426;42.872;25.314;2023-01-24T04:00:11;98257.16;;;0.84;84.84
42771;BME280;28426;42.872;25.314;2023-01-24T04:02:54;98256.59;;;0.79;84.53
42771;BME280;28426;42.872;25.314;2023-01-24T04:05:25;98254.16;;;0.76;84.24
42771;BME280;28426;42.872;25.314;2023-01-24T04:07:56;98257.91;;;0.72;84.41
42771;BME280;28426;42.872;25.314;2023-01-24T04:10:28;98251.16;;;0.68;84.56
42771;BME280;28426;42.872;25.314;2023-01-24T04:12:59;98254.94;;;0.63;84.02
42771;BME280;28426;42.872;25.314;2023-01-24T04:15:31;98262.13;;;0.60;84.65
42771;BME280;28426;42.872;25.314;2023-01-24T04:18:25;98245.16;;;0.51;84.25
42771;BME280;28426;42.872;25.314;2023-01-24T04:20:56;98258.22;;;0.52;84.38
42771;BME280;28426;42.872;25.314;2023-01-24T04:23:31;98256.63;;;0.50;84.21
42771;BME280;28426;42.872;25.314;2023-01-24T04:26:02;98262.03;;;0.47;84.54
42771;BME280;28426;42.872;25.314;2023-01-24T04:28:33;98260.44;;;0.44;84.76
42771;BME280;28426;42.872;25.314;2023-01-24T04:31:05;98261.41;;;0.43;84.50
42771;BME280;28426;42.872;25.314;2023-01-24T04:34:01;98257.06;;;0.42;84.63
42771;BME280;28426;42.872;25.314;2023-01-24T04:36:34;98257.91;;;0.43;84.76
42771;BME280;28426;42.872;25.314;2023-01-24T04:39:05;98250.50;;;0.35;84.96
42771;BME280;28426;42.872;25.314;2023-01-24T04:41:47;98267.56;;;0.42;85.06
42771;BME280;28426;42.872;25.314;2023-01-24T04:44:18;98263.16;;;0.43;85.19
42771;BME280;28426;42.872;25.314;2023-01-24T04:46:49;98267.56;;;0.42;84.92
42771;BME280;28426;42.872;25.314;2023-01-24T04:49:23;98263.34;;;0.39;85.15
42771;BME280;28426;42.872;25.314;2023-01-24T04:51:54;98255.28;;;0.43;85.12
42771;BME280;28426;42.872;25.314;2023-01-24T04:54:33;98262.59;;;0.23;85.77
42771;BME280;28426;42.872;25.314;2023-01-24T04:57:04;98264.91;;;-0.18;81.32
42771;BME280;28426;42.872;25.314;2023-01-24T04:59:36;98263.25;;;-0.67;80.42
42771;BME280;28426;42.872;25.314;2023-01-24T05:02:09;98266.94;;;-1.20;81.08
42771;BME280;28426;42.872;25.314;2023-01-24T05:04:45;98269.84;;;-1.76;80.02
42771;BME280;28426;42.872;25.314;2023-01-24T05:07:16;98265.91;;;-2.20;80.78
42771;BME280;28426;42.872;25.314;2023-01-24T05:09:55;98282.50;;;-2.58;82.98
42771;BME280;28426;42.872;25.314;2023-01-24T05:12:27;98284.38;;;-2.79;85.16
42771;BME280;28426;42.872;25.314;2023-01-24T05:15:03;98282.50;;;-2.95;85.40
42771;BME280;28426;42.872;25.314;2023-01-24T05:17:34;98284.66;;;-3.05;86.27
42771;BME280;28426;42.872;25.314;2023-01-24T05:20:10;98290.19;;;-3.11;86.07
42771;BME280;28426;42.872;25.314;2023-01-24T05:22:41;98282.59;;;-3.17;85.73
42771;BME280;28426;42.872;25.314;2023-01-24T05:25:15;98288.41;;;-3.10;90.51
42771;BME280;28426;42.872;25.314;2023-01-24T05:27:47;98286.56;;;-2.89;91.93
42771;BME280;28426;42.872;25.314;2023-01-24T05:30:19;98288.31;;;-2.51;97.98
42771;BME280;28426;42.872;25.314;2023-01-24T05:32:55;98286.00;;;-2.20;99.98
42771;BME280;28426;42.872;25.314;2023-01-24T05:35:28;98294.47;;;-1.98;99.07
42771;BME280;28426;42.872;25.314;2023-01-24T05:38:00;98287.53;;;-1.81;98.15
42771;BME280;28426;42.872;25.314;2023-01-24T05:40:32;98288.22;;;-1.60;97.60
42771;BME280;28426;42.872;25.314;2023-01-24T05:43:03;98296.13;;;-1.43;96.88
42771;BME280;28426;42.872;25.314;2023-01-24T05:45:35;98300.56;;;-1.28;96.32
42771;BME280;28426;42.872;25.314;2023-01-24T05:48:06;98297.22;;;-1.14;95.62
42771;BME280;28426;42.872;25.314;2023-01-24T05:50:40;98306.13;;;-1.00;95.44
42771;BME280;28426;42.872;25.314;2023-01-24T05:53:12;98306.38;;;-0.89;94.83
42771;BME280;28426;42.872;25.314;2023-01-24T05:55:43;98318.81;;;-0.76;94.44
42771;BME280;28426;42.872;25.314;2023-01-24T05:58:13;98321.00;;;-0.69;93.94
42771;BME280;28426;42.872;25.314;2023-01-24T06:01:06;98330.09;;;-0.58;93.44
42771;BME280;28426;42.872;25.314;2023-01-24T06:03:42;98327.13;;;-0.52;92.98
42771;BME280;28426;42.872;25.314;2023-01-24T06:06:17;98333.53;;;-0.42;92.56
42771;BME280;28426;42.872;25.314;2023-01-24T06:08:49;98339.38;;;-0.36;92.10
42771;BME280;28426;42.872;25.314;2023-01-24T06:11:22;98343.28;;;-0.28;91.88
42771;BME280;28426;42.872;25.314;2023-01-24T06:14:26;98342.09;;;-0.22;91.17
42771;BME280;28426;42.872;25.314;2023-01-24T06:16:57;98341.91;;;-0.19;90.53
42771;BME280;28426;42.872;25.314;2023-01-24T06:19:29;98337.50;;;-0.18;89.98
42771;BME280;28426;42.872;25.314;2023-01-24T06:22:09;98336.66;;;-0.19;89.77
42771;BME280;28426;42.872;25.314;2023-01-24T06:24:47;98335.75;;;-0.18;89.42
42771;BME280;28426;42.872;25.314;2023-01-24T06:27:30;98338.38;;;-0.18;89.20
42771;BME280;28426;42.872;25.314;2023-01-24T06:30:02;98333.13;;;-0.18;89.04
42771;BME280;28426;42.872;25.314;2023-01-24T06:32:37;98334.81;;;-0.17;88.98
42771;BME280;28426;42.872;25.314;2023-01-24T06:35:15;98333.94;;;-0.17;89.10
42771;BME280;28426;42.872;25.314;2023-01-24T06:37:52;98336.66;;;-0.19;89.03
42771;BME280;28426;42.872;25.314;2023-01-24T06:40:25;98336.66;;;-0.19;88.46
42771;BME280;28426;42.872;25.314;2023-01-24T06:42:58;98341.00;;;-0.18;88.67
42771;BME280;28426;42.872;25.314;2023-01-24T06:45:29;98345.47;;;-0.20;88.56
42771;BME280;28426;42.872;25.314;2023-01-24T06:47:59;98343.78;;;-0.21;87.96
42771;BME280;28426;42.872;25.314;2023-01-24T06:50:30;98345.63;;;-0.23;87.82
42771;BME280;28426;42.872;25.314;2023-01-24T06:53:03;98346.75;;;-0.27;87.68
42771;BME280;28426;42.872;25.314;2023-01-24T06:55:35;98345.97;;;-0.29;87.77
42771;BME280;28426;42.872;25.314;2023-01-24T06:58:06;98341.66;;;-0.30;87.64
42771;BME280;28426;42.872;25.314;2023-01-24T07:00:36;98354.13;;;-0.34;87.47
42771;BME280;28426;42.872;25.314;2023-01-24T07:03:07;98356.63;;;-0.32;87.68
42771;BME280;28426;42.872;25.314;2023-01-24T07:05:38;98353.09;;;-0.31;87.87
42771;BME280;28426;42.872;25.314;2023-01-24T07:08:11;98350.56;;;-0.33;87.77
42771;BME280;28426;42.872;25.314;2023-01-24T07:10:47;98360.84;;;-0.30;88.03
42771;BME280;28426;42.872;25.314;2023-01-24T07:13:18;98363.31;;;-0.27;88.11
42771;BME280;28426;42.872;25.314;2023-01-24T07:15:49;98363.25;;;-0.25;87.98
42771;BME280;28426;42.872;25.314;2023-01-24T07:18:20;98357.91;;;-0.23;87.83
42771;BME280;28426;42.872;25.314;2023-01-24T07:20:53;98369.22;;;-0.23;87.32
42771;BME280;28426;42.872;25.314;2023-01-24T07:23:27;98378.81;;;-0.22;87.23
42771;BME280;28426;42.872;25.314;2023-01-24T07:26:00;98377.09;;;-0.23;87.12
42771;BME280;28426;42.872;25.314;2023-01-24T07:28:31;98370.16;;;-0.24;87.18
42771;BME280;28426;42.872;25.314;2023-01-24T07:31:02;98378.97;;;-0.25;87.04
42771;BME280;28426;42.872;25.314;2023-01-24T07:33:32;98379.13;;;-0.28;87.08
42771;BME280;28426;42.872;25.314;2023-01-24T07:36:11;98388.88;;;-0.30;86.29
42771;BME280;28426;42.872;25.314;2023-01-24T07:38:45;98391.50;;;-0.30;86.41
42771;BME280;28426;42.872;25.314;2023-01-24T07:41:15;98394.22;;;-0.32;86.76
42771;BME280;28426;42.872;25.314;2023-01-24T07:43:50;98397.94;;;-0.36;86.71
42771;BME280;28426;42.872;25.314;2023-01-24T07:46:21;98394.63;;;-0.40;86.25
42771;BME280;28426;42.872;25.314;2023-01-24T07:48:51;98394.88;;;-0.44;86.36
42771;BME280;28426;42.872;25.314;2023-01-24T07:51:22;98401.13;;;-0.47;86.48
42771;BME280;28426;42.872;25.314;2023-01-24T07:53:55;98406.47;;;-0.48;86.32
42771;BME280;28426;42.872;25.314;2023-01-24T07:56:26;98406.66;;;-0.51;86.41
42771;BME280;28426;42.872;25.314;2023-01-24T07:58:56;98401.47;;;-0.53;86.37
42771;BME280;28426;42.872;25.314;2023-01-24T08:01:27;98409.41;;;-0.55;86.31
42771;BME280;28426;42.872;25.314;2023-01-24T08:03:58;98401.72;;;-0.58;86.50
42771;BME280;28426;42.872;25.314;2023-01-24T08:06:28;98408.75;;;-0.58;86.23
42771;BME280;28426;42.872;25.314;2023-01-24T08:09:02;98409.75;;;-0.61;86.60
42771;BME280;28426;42.872;25.314;2023-01-24T08:11:32;98408.91;;;-0.61;87.06
42771;BME280;28426;42.872;25.314;2023-01-24T08:14:04;98410.59;;;-0.60;87.25
42771;BME280;28426;42.872;25.314;2023-01-24T08:16:35;98412.13;;;-0.56;87.57
42771;BME280;28426;42.872;25.314;2023-01-24T08:19:05;98412.91;;;-0.54;87.43
42771;BME280;28426;42.872;25.314;2023-01-24T08:21:36;98427.63;;;-0.51;87.16
42771;BME280;28426;42.872;25.314;2023-01-24T08:24:09;98417.97;;;-0.51;86.71
42771;BME280;28426;42.872;25.314;2023-01-24T08:26:40;98424.13;;;-0.52;86.53
42771;BME280;28426;42.872;25.314;2023-01-24T08:29:13;98423.19;;;-0.51;87.24
42771;BME280;28426;42.872;25.314;2023-01-24T08:31:44;98427.50;;;-0.50;86.88
42771;BME280;28426;42.872;25.314;2023-01-24T08:34:15;98435.31;;;-0.48;86.84
42771;BME280;28426;42.872;25.314;2023-01-24T08:36:46;98435.22;;;-0.47;87.03
42771;BME280;28426;42.872;25.314;2023-01-24T08:39:19;98432.59;;;-0.47;86.84
42771;BME280;28426;42.872;25.314;2023-01-24T08:41:55;98436.91;;;-0.46;86.91
42771;BME280;28426;42.872;25.314;2023-01-24T08:44:25;98434.28;;;-0.46;86.96
42771;BME280;28426;42.872;25.314;2023-01-24T08:46:56;98436.00;;;-0.45;86.79
42771;BME280;28426;42.872;25.314;2023-01-24T08:49:27;98436.69;;;-0.41;86.81
42771;BME280;28426;42.872;25.314;2023-01-24T08:51:58;98451.41;;;-0.38;86.66
42771;BME280;28426;42.872;25.314;2023-01-24T08:54:31;98440.06;;;-0.39;86.77
42771;BME280;28426;42.872;25.314;2023-01-24T08:57:03;98448.03;;;-0.41;86.36
42771;BME280;28426;42.872;25.314;2023-01-24T08:59:34;98445.41;;;-0.41;86.21
42771;BME280;28426;42.872;25.314;2023-01-24T09:02:04;98441.91;;;-0.41;86.50
42771;BME280;28426;42.872;25.314;2023-01-24T09:04:35;98437.34;;;-0.37;86.63
42771;BME280;28426;42.872;25.314;2023-01-24T09:07:05;98431.00;;;-0.33;86.99
42771;BME280;28426;42.872;25.314;2023-01-24T09:09:38;98434.31;;;-0.30;86.90
42771;BME280;28426;42.872;25.314;2023-01-24T09:12:09;98422.41;;;-0.35;87.18
42771;BME280;28426;42.872;25.314;2023-01-24T09:14:39;98439.09;;;-0.20;87.01
42771;BME280;28426;42.872;25.314;2023-01-24T09:17:10;98438.88;;;-0.17;87.21
42771;BME280;28426;42.872;25.314;2023-01-24T09:19:41;98434.50;;;-0.17;86.30
42771;BME280;28426;42.872;25.314;2023-01-24T09:22:12;98437.88;;;-0.15;86.22
42771;BME280;28426;42.872;25.314;2023-01-24T09:24:45;98435.25;;;-0.15;85.89
42771;BME280;28426;42.872;25.314;2023-01-24T09:27:15;98440.56;;;-0.16;85.53
42771;BME280;28426;42.872;25.314;2023-01-24T09:29:46;98439.91;;;-0.20;85.09
42771;BME280;28426;42.872;25.314;2023-01-24T09:32:16;98431.28;;;-0.22;84.90
42771;BME280;28426;42.872;25.314;2023-01-24T09:34:47;98434.81;;;-0.23;85.72
42771;BME280;28426;42.872;25.314;2023-01-24T09:37:18;98431.28;;;-0.22;85.29
42771;BME280;28426;42.872;25.314;2023-01-24T09:39:51;98427.88;;;-0.24;85.65
42771;BME280;28426;42.872;25.314;2023-01-24T09:42:28;98426.94;;;-0.23;85.44
42771;BME280;28426;42.872;25.314;2023-01-24T09:45:11;98428.75;;;-0.23;85.20
42771;BME280;28426;42.872;25.314;2023-01-24T09:47:47;98428.81;;;-0.25;84.84
42771;BME280;28426;42.872;25.314;2023-01-24T09:50:22;98426.34;;;-0.28;84.65
42771;BME280;28426;42.872;25.314;2023-01-24T09:52:56;98423.94;;;-0.31;85.01
42771;BME280;28426;42.872;25.314;2023-01-24T09:55:34;98415.19;;;-0.32;85.19
42771;BME280;28426;42.872;25.314;2023-01-24T09:58:16;98418.50;;;-0.28;85.90
42771;BME280;28426;42.872;25.314;2023-01-24T10:00:59;98410.31;;;-0.22;86.61
42771;BME280;28426;42.872;25.314;2023-01-24T10:03:33;98416.88;;;-0.15;86.68
42771;BME280;28426;42.872;25.314;2023-01-24T10:06:08;98416.56;;;-0.08;86.59
42771;BME280;28426;42.872;25.314;2023-01-24T10:08:49;98416.22;;;-0.02;86.96
42771;BME280;28426;42.872;25.314;2023-01-24T10:11:32;98420.19;;;0.05;86.98
42771;BME280;28426;42.872;25.314;2023-01-24T10:14:29;98419.09;;;0.09;87.06
42771;BME280;28426;42.872;25.314;2023-01-24T10:20:12;98406.56;;;0.15;86.05
42771;BME280;28426;42.872;25.314;2023-01-24T10:22:59;98410.78;;;0.17;85.91
42771;BME280;28426;42.872;25.314;2023-01-24T10:25:34;98399.25;;;0.20;85.98
42771;BME280;28426;42.872;25.314;2023-01-24T10:28:18;98399.09;;;0.23;86.18
42771;BME280;28426;42.872;25.314;2023-01-24T10:30:58;98406.78;;;0.26;85.80
42771;BME280;28426;42.872;25.314;2023-01-24T10:33:33;98400.41;;;0.30;86.08
42771;BME280;28426;42.872;25.314;2023-01-24T10:36:10;98402.72;;;0.36;86.03
42771;BME280;28426;42.872;25.314;2023-01-24T10:38:41;98404.13;;;0.42;86.07
42771;BME280;28426;42.872;25.314;2023-01-24T10:41:21;98398.53;;;0.48;85.97
42771;BME280;28426;42.872;25.314;2023-01-24T10:43:59;98399.19;;;0.52;85.95
42771;BME280;28426;42.872;25.314;2023-01-24T10:46:47;98395.44;;;0.56;85.47
42771;BME280;28426;42.872;25.314;2023-01-24T10:49:24;98397.91;;;0.59;85.08
42771;BME280;28426;42.872;25.314;2023-01-24T10:52:15;98382.03;;;0.61;85.21
42771;BME280;28426;42.872;25.314;2023-01-24T10:54:48;98384.94;;;0.56;83.45
42771;BME280;28426;42.872;25.314;2023-01-24T10:57:33;98373.88;;;0.51;83.33
42771;BME280;28426;42.872;25.314;2023-01-24T11:00:17;98370.84;;;0.43;83.27
42771;BME280;28426;42.872;25.314;2023-01-24T11:02:52;98380.69;;;0.39;83.67
42771;BME280;28426;42.872;25.314;2023-01-24T11:05:24;98370.06;;;0.41;84.44
42771;BME280;28426;42.872;25.314;2023-01-24T11:07:59;98371.56;;;0.45;84.44
42771;BME280;28426;42.872;25.314;2023-01-24T11:10:36;98368.53;;;0.52;84.59
42771;BME280;28426;42.872;25.314;2023-01-24T11:13:24;98376.13;;;0.57;83.64
42771;BME280;28426;42.872;25.314;2023-01-24T11:16:00;98371.63;;;0.59;83.31
42771;BME280;28426;42.872;25.314;2023-01-24T11:18:33;98360.44;;;0.56;81.83
42771;BME280;28426;42.872;25.314;2023-01-24T11:21:06;98356.31;;;0.51;82.05
42771;BME280;28426;42.872;25.314;2023-01-24T11:23:37;98354.91;;;0.46;81.47
42771;BME280;28426;42.872;25.314;2023-01-24T11:26:21;98345.69;;;0.38;82.21
42771;BME280;28426;42.872;25.314;2023-01-24T11:29:00;98344.16;;;0.34;82.42
42771;BME280;28426;42.872;25.314;2023-01-24T11:31:37;98340.03;;;0.30;81.27
42771;BME280;28426;42.872;25.314;2023-01-24T11:34:27;98346.41;;;0.26;81.90
42771;BME280;28426;42.872;25.314;2023-01-24T11:37:06;98339.63;;;0.22;80.90
42771;BME280;28426;42.872;25.314;2023-01-24T11:39:46;98339.06;;;0.17;81.09
42771;BME280;28426;42.872;25.314;2023-01-24T11:42:29;98347.94;;;0.14;81.23
42771;BME280;28426;42.872;25.314;2023-01-24T11:45:28;98343.06;;;0.08;80.93
42771;BME280;28426;42.872;25.314;2023-01-24T11:48:18;98331.22;;;0.01;80.73
42771;BME280;28426;42.872;25.314;2023-01-24T11:50:58;98334.94;;;-0.04;81.51
42771;BME280;28426;42.872;25.314;2023-01-24T11:54:04;98337.66;;;-0.05;82.22
42771;BME280;28426;42.872;25.314;2023-01-24T11:56:44;98329.03;;;-0.07;81.74
42771;BME280;28426;42.872;25.314;2023-01-24T12:02:23;98330.56;;;-0.03;82.07
42771;BME280;28426;42.872;25.314;2023-01-24T12:05:18;98319.56;;;-0.10;81.92
42771;BME280;28426;42.872;25.314;2023-01-24T12:08:01;98335.53;;;0.02;82.33
42771;BME280;28426;42.872;25.314;2023-01-24T12:10:44;98336.38;;;0.02;82.04
42771;BME280;28426;42.872;25.314;2023-01-24T12:13:44;98333.75;;;0.02;82.11
42771;BME280;28426;42.872;25.314;2023-01-24T12:16:28;98333.91;;;-0.01;81.67
42771;BME280;28426;42.872;25.314;2023-01-24T12:19:15;98334.19;;;-0.06;81.41
42771;BME280;28426;42.872;25.314;2023-01-24T12:21:54;98344.00;;;-0.09;81.57
42771;BME280;28426;42.872;25.314;2023-01-24T12:24:28;98334.53;;;-0.12;81.66
42771;BME280;28426;42.872;25.314;2023-01-24T12:27:02;98343.41;;;-0.15;81.48
42771;BME280;28426;42.872;25.314;2023-01-24T12:29:39;98346.13;;;-0.16;81.79
42771;BME280;28426;42.872;25.314;2023-01-24T12:32:17;98344.28;;;-0.14;82.48
42771;BME280;28426;42.872;25.314;2023-01-24T12:34:54;98344.19;;;-0.12;82.29
42771;BME280;28426;42.872;25.314;2023-01-24T12:37:33;98350.19;;;-0.10;82.02
42771;BME280;28426;42.872;25.314;2023-01-24T12:40:14;98350.19;;;-0.10;81.12
42771;BME280;28426;42.872;25.314;2023-01-24T12:42:54;98356.38;;;-0.11;81.24
42771;BME280;28426;42.872;25.314;2023-01-24T12:45:29;98355.72;;;-0.15;81.28
42771;BME280;28426;42.872;25.314;2023-01-24T12:48:05;98361.88;;;-0.16;81.05
42771;BME280;28426;42.872;25.314;2023-01-24T12:50:43;98348.00;;;-0.18;81.00
42771;BME280;28426;42.872;25.314;2023-01-24T12:53:26;98350.63;;;-0.18;81.10
42771;BME280;28426;42.872;25.314;2023-01-24T12:56:00;98346.31;;;-0.19;81.49
42771;BME280;28426;42.872;25.314;2023-01-24T12:58:36;98355.63;;;-0.14;81.69
42771;BME280;28426;42.872;25.314;2023-01-24T13:01:32;98356.47;;;-0.13;80.90
42771;BME280;28426;42.872;25.314;2023-01-24T13:04:12;98360.09;;;-0.16;81.00
42771;BME280;28426;42.872;25.314;2023-01-24T13:06:55;98361.97;;;-0.18;81.24
42771;BME280;28426;42.872;25.314;2023-01-24T13:09:36;98361.19;;;-0.20;80.77
42771;BME280;28426;42.872;25.314;2023-01-24T13:12:13;98362.38;;;-0.25;80.92
42771;BME280;28426;42.872;25.314;2023-01-24T13:14:48;98363.41;;;-0.28;81.03
42771;BME280;28426;42.872;25.314;2023-01-24T13:17:31;98375.78;;;-0.30;81.13
42771;BME280;28426;42.872;25.314;2023-01-24T13:23:09;98376.78;;;-0.33;81.48
42771;BME280;28426;42.872;25.314;2023-01-24T13:26:06;98374.16;;;-0.33;81.18
42771;BME280;28426;42.872;25.314;2023-01-24T13:28:49;98356.31;;;-0.42;81.20
42771;BME280;28426;42.872;25.314;2023-01-24T13:31:29;98370.00;;;-0.37;81.31
42771;BME280;28426;42.872;25.314;2023-01-24T13:34:01;98368.41;;;-0.40;81.38
42771;BME280;28426;42.872;25.314;2023-01-24T13:36:35;98377.97;;;-0.38;81.28
42771;BME280;28426;42.872;25.314;2023-01-24T13:39:31;98374.66;;;-0.42;81.43
42771;BME280;28426;42.872;25.314;2023-01-24T13:42:19;98383.38;;;-0.42;81.57
42771;BME280;28426;42.872;25.314;2023-01-24T13:44:50;98374.47;;;-0.39;82.00
42771;BME280;28426;42.872;25.314;2023-01-24T13:47:24;98376.19;;;-0.38;81.58